createdAt,value
2023-03-25T00:01:59.024Z,17.11
2023-03-25T00:07:01.725Z,17.06
2023-03-25T00:12:04.105Z,17.01
2023-03-25T00:17:07.951Z,16.58
2023-03-25T00:22:09.689Z,16.45
2023-03-25T00:27:11.451Z,16.60
2023-03-25T00:32:16.429Z,17.24
2023-03-25T00:37:18.354Z,17.45
2023-03-25T00:42:26.357Z,16.91
2023-03-25T00:47:28.930Z,16.43
2023-03-25T00:52:36.492Z,15.85
2023-03-25T00:57:38.329Z,15.13
2023-03-25T01:02:40.094Z,14.84
2023-03-25T01:07:42.313Z,14.83
2023-03-25T01:12:44.027Z,15.11
2023-03-25T01:17:46.360Z,15.02
2023-03-25T01:22:48.157Z,14.75
2023-03-25T01:27:49.973Z,14.78
2023-03-25T01:32:51.716Z,14.66
2023-03-25T01:37:54.788Z,14.74
2023-03-25T01:42:56.741Z,14.91
2023-03-25T01:48:23.038Z,14.79
2023-03-25T01:53:30.227Z,14.59
2023-03-25T01:58:33.361Z,14.17
2023-03-25T02:03:37.248Z,14.17
2023-03-25T02:08:41.603Z,14.33
2023-03-25T02:13:43.687Z,14.49
2023-03-25T02:19:06.855Z,14.69
2023-03-25T02:24:46.406Z,14.77
2023-03-25T02:30:09.160Z,15.22
2023-03-25T02:35:10.862Z,15.32
2023-03-25T02:40:26.016Z,15.37
2023-03-25T02:45:32.066Z,15.07
2023-03-25T02:50:43.670Z,15.02
2023-03-25T02:55:48.075Z,15.21
2023-03-25T03:00:52.181Z,14.80
2023-03-25T03:05:58.869Z,14.81
2023-03-25T03:11:09.506Z,15.19
2023-03-25T03:16:30.989Z,15.48
2023-03-25T03:21:38.749Z,15.64
2023-03-25T03:26:49.553Z,15.71
2023-03-25T03:32:13.468Z,15.95
2023-03-25T03:37:21.239Z,16.13
2023-03-25T03:42:31.088Z,16.12
2023-03-25T03:47:38.381Z,16.13
2023-03-25T03:52:50.830Z,16.08
2023-03-25T03:57:58.921Z,16.57
2023-03-25T04:03:15.851Z,16.39
2023-03-25T04:08:28.787Z,14.44
2023-03-25T04:13:35.429Z,14.09
2023-03-25T04:18:37.178Z,15.02
2023-03-25T04:23:41.176Z,15.02
2023-03-25T04:28:44.618Z,15.03
2023-03-25T04:33:50.689Z,14.97
2023-03-25T04:38:53.177Z,14.92
2023-03-25T04:43:54.951Z,14.90
2023-03-25T04:48:57.154Z,14.96
2023-03-25T04:53:59.226Z,14.95
2023-03-25T04:59:00.919Z,14.88
2023-03-25T05:06:13.987Z,14.72
2023-03-25T05:11:15.725Z,14.87
2023-03-25T05:16:17.708Z,14.88
2023-03-25T05:21:19.571Z,15.01
2023-03-25T05:26:21.314Z,15.27
2023-03-25T05:31:23.037Z,15.55
2023-03-25T05:36:25.212Z,15.73
2023-03-25T05:41:38.791Z,15.79
2023-03-25T05:46:40.609Z,15.90
2023-03-25T05:51:45.226Z,15.95
2023-03-25T05:56:47.227Z,16.00
2023-03-25T06:01:50.033Z,16.21
2023-03-25T06:06:51.781Z,16.43
2023-03-25T06:11:53.708Z,16.69
2023-03-25T06:16:56.917Z,16.60
2023-03-25T06:21:58.691Z,15.36
2023-03-25T06:27:00.430Z,15.11
2023-03-25T06:32:02.149Z,15.20
2023-03-25T06:37:04.024Z,15.17
2023-03-25T06:42:06.218Z,15.10
2023-03-25T06:47:36.647Z,15.13
2023-03-25T06:52:38.630Z,15.23
2023-03-25T06:57:42.159Z,15.52
2023-03-25T07:02:43.893Z,15.83
2023-03-25T07:07:45.673Z,16.13
2023-03-25T07:12:47.879Z,16.37
2023-03-25T07:17:49.898Z,16.77
2023-03-25T07:22:54.455Z,16.86
2023-03-25T07:27:56.405Z,16.17
2023-03-25T07:32:58.640Z,15.70
2023-03-25T07:38:00.449Z,15.36
2023-03-25T07:43:02.272Z,15.09
2023-03-25T07:48:34.312Z,14.81
2023-03-25T07:53:39.104Z,14.63
2023-03-25T07:58:42.093Z,15.10
2023-03-25T08:03:43.958Z,15.79
2023-03-25T08:08:46.397Z,15.66
2023-03-25T08:13:48.202Z,15.47
2023-03-25T08:18:53.203Z,15.55
2023-03-25T08:23:58.536Z,15.60
2023-03-25T08:29:02.764Z,15.81
2023-03-25T08:34:05.633Z,15.99
2023-03-25T08:39:11.838Z,15.93
2023-03-25T08:44:13.840Z,15.91
2023-03-25T08:49:15.520Z,15.99
2023-03-25T08:54:17.445Z,16.01
2023-03-25T08:59:19.691Z,16.25
2023-03-25T09:04:21.421Z,16.65
2023-03-25T09:09:23.504Z,17.03
2023-03-25T09:14:25.375Z,17.52
2023-03-25T09:19:27.169Z,18.24
2023-03-25T09:24:29.017Z,18.53
2023-03-25T09:29:30.867Z,18.09
2023-03-25T09:34:32.578Z,17.62
2023-03-25T09:39:34.328Z,17.03
2023-03-25T09:44:57.192Z,16.63
2023-03-25T09:50:02.113Z,16.59
2023-03-25T09:55:08.719Z,16.16
2023-03-25T10:00:20.581Z,15.73
2023-03-25T10:05:46.823Z,15.94
2023-03-25T10:11:09.887Z,16.17
2023-03-25T10:16:31.458Z,15.63
2023-03-25T10:21:54.785Z,15.23
2023-03-25T10:27:27.110Z,15.81
2023-03-25T10:32:40.609Z,16.02
2023-03-25T10:37:42.667Z,15.21
2023-03-25T10:42:55.580Z,14.82
2023-03-25T10:48:23.259Z,15.30
2023-03-25T10:53:27.947Z,15.86
2023-03-25T10:58:31.861Z,16.30
2023-03-25T11:03:35.453Z,16.96
2023-03-25T11:08:37.252Z,16.96
2023-03-25T11:13:41.207Z,17.29
2023-03-25T11:18:44.440Z,17.48
2023-03-25T11:23:51.821Z,17.65
2023-03-25T11:28:56.724Z,17.69
2023-03-25T11:34:10.684Z,17.99
2023-03-25T11:39:34.127Z,18.29
2023-03-25T11:44:35.864Z,18.28
2023-03-25T11:49:41.347Z,18.17
2023-03-25T11:54:44.755Z,18.12
2023-03-25T11:59:48.168Z,17.09
2023-03-25T12:05:12.318Z,15.47
2023-03-25T12:10:19.067Z,14.95
2023-03-25T12:15:33.434Z,14.94
2023-03-25T12:20:56.316Z,14.85
2023-03-25T12:26:11.733Z,14.99
2023-03-25T12:31:43.723Z,15.64
2023-03-25T12:37:25.095Z,16.95
2023-03-25T12:42:39.267Z,17.14
2023-03-25T12:47:46.121Z,16.65
2023-03-25T12:53:17.454Z,16.48
2023-03-25T12:58:37.478Z,16.82
2023-03-25T13:04:05.224Z,17.45
2023-03-25T13:09:18.524Z,18.00
2023-03-25T13:14:27.368Z,17.95
2023-03-25T13:19:34.708Z,18.08
2023-03-25T13:24:49.681Z,17.90
2023-03-25T13:29:54.603Z,17.38
2023-03-25T13:35:11.674Z,17.24
2023-03-25T13:40:25.962Z,17.34
2023-03-25T13:45:32.915Z,17.10
2023-03-25T13:50:36.494Z,17.03
2023-03-25T13:55:46.425Z,16.67
2023-03-25T14:01:03.716Z,16.30
2023-03-25T14:06:08.859Z,16.31
2023-03-25T14:11:38.009Z,16.32
2023-03-25T14:16:47.674Z,16.25
2023-03-25T14:21:51.763Z,16.15
2023-03-25T14:26:59.840Z,16.19
2023-03-25T14:32:16.709Z,16.15
2023-03-25T14:37:27.833Z,16.09
2023-03-25T14:42:58.367Z,15.94
2023-03-25T14:48:00.695Z,15.70
2023-03-25T14:53:06.925Z,15.81
2023-03-25T14:58:25.499Z,15.38
2023-03-25T15:03:33.934Z,14.43
2023-03-25T15:08:39.308Z,13.95
2023-03-25T15:13:52.844Z,13.79
2023-03-25T15:18:54.594Z,13.60
2023-03-25T15:24:09.929Z,13.49
2023-03-25T15:29:39.459Z,13.69
2023-03-25T15:34:50.343Z,14.31
2023-03-25T15:40:10.083Z,14.68
2023-03-25T15:45:51.807Z,14.69
2023-03-25T15:51:32.309Z,14.63
2023-03-25T15:56:41.148Z,14.09
2023-03-25T16:01:47.594Z,13.78
2023-03-25T16:06:53.894Z,13.42
2023-03-25T16:12:00.484Z,12.92
2023-03-25T16:17:07.378Z,12.56
2023-03-25T16:22:32.041Z,12.52
2023-03-25T16:27:33.695Z,13.24
2023-03-25T16:32:36.132Z,13.51
2023-03-25T16:37:40.018Z,12.91
2023-03-25T16:42:41.764Z,12.45
2023-03-25T16:47:46.269Z,12.13
2023-03-25T16:52:50.469Z,11.83
2023-03-25T16:57:52.492Z,11.63
2023-03-25T17:02:54.630Z,11.94
2023-03-25T17:07:59.993Z,12.11
2023-03-25T17:13:09.164Z,11.97
2023-03-25T17:18:15.786Z,11.85
2023-03-25T17:23:17.417Z,11.76
2023-03-25T17:28:19.834Z,11.86
2023-03-25T17:33:39.197Z,12.08
2023-03-25T17:38:47.338Z,11.94
2023-03-25T17:43:54.094Z,11.63
2023-03-25T17:48:57.854Z,11.64
2023-03-25T17:53:59.587Z,11.64
2023-03-25T17:59:04.902Z,11.72
2023-03-25T18:04:06.945Z,11.78
2023-03-25T18:09:24.150Z,11.65
2023-03-25T18:14:26.614Z,11.43
2023-03-25T18:19:31.258Z,11.33
2023-03-25T18:24:34.252Z,11.34
2023-03-25T18:29:37.689Z,11.18
2023-03-25T18:34:39.397Z,11.10
2023-03-25T18:39:41.166Z,11.05
2023-03-25T18:44:42.920Z,10.76
2023-03-25T18:49:44.668Z,10.73
2023-03-25T18:54:46.672Z,10.84
2023-03-25T18:59:48.395Z,10.93
2023-03-25T19:05:00.227Z,10.98
2023-03-25T19:10:02.680Z,10.97
2023-03-25T19:15:05.032Z,10.93
2023-03-25T19:20:09.163Z,10.69
2023-03-25T19:25:11.545Z,10.51
2023-03-25T19:30:17.588Z,10.35
2023-03-25T19:35:21.552Z,10.26
2023-03-25T19:40:26.262Z,10.09
2023-03-25T19:45:30.357Z,10.01
2023-03-25T19:50:32.925Z,9.91
2023-03-25T19:55:34.979Z,9.82
2023-03-25T20:00:36.681Z,9.70
2023-03-25T20:05:38.416Z,9.77
2023-03-25T20:10:41.465Z,9.89
2023-03-25T20:15:43.648Z,9.91
2023-03-25T20:20:45.418Z,9.99
2023-03-25T20:25:47.415Z,9.87
2023-03-25T20:30:49.109Z,9.83
2023-03-25T20:35:51.277Z,9.82
2023-03-25T20:40:54.696Z,9.82
2023-03-25T20:45:56.952Z,9.75
2023-03-25T20:51:04.418Z,9.67
2023-03-25T20:56:06.475Z,9.59
2023-03-25T21:01:08.300Z,9.59
2023-03-25T21:06:22.866Z,9.27
2023-03-25T21:11:25.723Z,9.36
2023-03-25T21:16:27.672Z,9.33
2023-03-25T21:21:29.860Z,9.56
2023-03-25T21:26:32.439Z,9.46
2023-03-25T21:31:34.205Z,9.53
2023-03-25T21:36:36.019Z,9.55
2023-03-25T21:41:38.029Z,9.79
2023-03-25T21:46:40.966Z,10.65
2023-03-25T21:51:44.296Z,11.72
2023-03-25T21:56:47.037Z,10.81
2023-03-25T22:01:48.871Z,10.61
2023-03-25T22:06:51.390Z,11.21
2023-03-25T22:11:53.987Z,11.68
2023-03-25T22:16:55.794Z,11.88
2023-03-25T22:21:57.673Z,10.84
2023-03-25T22:26:59.608Z,10.70
2023-03-25T22:32:07.039Z,10.98
2023-03-25T22:37:09.064Z,11.15
2023-03-25T22:42:14.498Z,11.30
2023-03-25T22:47:19.954Z,11.10
2023-03-25T22:52:41.773Z,10.98
2023-03-25T22:57:43.497Z,10.59
2023-03-25T23:02:47.056Z,10.26
2023-03-25T23:07:48.845Z,10.38
2023-03-25T23:12:51.065Z,10.45
2023-03-25T23:17:52.773Z,10.19
2023-03-25T23:22:54.821Z,9.98
2023-03-25T23:27:58.140Z,9.98
2023-03-25T23:33:00.014Z,9.87
2023-03-25T23:38:01.834Z,9.69
2023-03-25T23:43:03.595Z,9.48
2023-03-25T23:48:06.498Z,9.58
2023-03-25T23:53:08.336Z,9.52
2023-03-25T23:58:10.150Z,9.45
